Dai2kousei — JD2542 — position and weather

sailwx.info

Track history (hours):
 
Tides and Currents Weather Stations Pressure Air Temp Water Temp Dewpoint Dewpoint Depression Visibility Wind Speed Wind Dir Waves Ship Positions

Dai2kousei

Last reported at 2017-Aug-18 02:43 UTC. Time now 2017-Aug-21 12:02 UTC.
Position N 34°54' E 139°24'.

Length 77 m; draft 3.7 m.

MMSI: 431000467.

Date/timePositionNaut miles runAvg speedWind from/ knotsBaromVisibWave heightAir tempDewpointWater temp
2017-Aug-18 02:43N 34°54' E 139°24'210.7
2017-Aug-18 02:30N 34°56' E 139°26'611.8
2017-Aug-18 02:00N 34°60' E 139°32'612.1
2017-Aug-18 01:30N 35°03' E 139°37'612.4
2017-Aug-18 01:00N 35°08' E 139°43'612.1
2017-Aug-18 00:30N 35°13' E 139°46'611.5
2017-Aug-18 00:00N 35°18' E 139°44'511.0
2017-Aug-17 23:30N 35°24' E 139°43'510.4
2017-Aug-17 23:00N 35°29' E 139°45'1 1.3
2017-Aug-17 22:30N 35°29' E 139°44'0 0.0
2017-Aug-17 22:00N 35°29' E 139°44'0 0.0
2017-Aug-17 21:31N 35°29' E 139°44'0 0.0
2017-Aug-17 21:00N 35°29' E 139°44'0 0.0
2017-Aug-17 20:31N 35°29' E 139°44'0 0.0
2017-Aug-17 20:00N 35°29' E 139°44'0 0.0
2017-Aug-17 19:30N 35°29' E 139°44'0 0.0
2017-Aug-17 19:00N 35°29' E 139°44'0 0.0
2017-Aug-17 18:30N 35°29' E 139°44'0 0.0
2017-Aug-17 18:00N 35°29' E 139°44'0 0.0
2017-Aug-17 17:30N 35°29' E 139°44'0 0.0
2017-Aug-17 17:00N 35°29' E 139°44'0 0.0
2017-Aug-17 16:31N 35°29' E 139°44'0 0.0
2017-Aug-17 16:01N 35°29' E 139°44'0 0.0
2017-Aug-17 15:31N 35°29' E 139°44'0 0.0
2017-Aug-17 15:00N 35°29' E 139°44'0 0.3
2017-Aug-17 14:30N 35°29' E 139°44'2 3.2
2017-Aug-17 14:00N 35°29' E 139°46'0 0.0
2017-Aug-17 13:30N 35°29' E 139°46'0 0.1
2017-Aug-17 13:00N 35°29' E 139°46'0 0.0
2017-Aug-17 12:30N 35°29' E 139°46'0 0.0
2017-Aug-17 12:00N 35°29' E 139°46'0 0.0
2017-Aug-17 11:30N 35°29' E 139°46'0 0.0
2017-Aug-17 11:00N 35°29' E 139°46'0 0.0
2017-Aug-17 10:30N 35°29' E 139°46'0 0.0
2017-Aug-17 10:00N 35°29' E 139°46'0 0.0
2017-Aug-17 09:30N 35°29' E 139°46'0 0.0
2017-Aug-17 09:00N 35°29' E 139°46'0 0.1
2017-Aug-17 08:30N 35°29' E 139°46'2 3.7
2017-Aug-17 08:00N 35°29' E 139°48'9 2.0
2017-Aug-17 03:14N 35°28' E 139°60'1 3.2
2017-Aug-17 02:57N 35°29' E 139°59'4 7.9
2017-Aug-17 02:28N 35°33' E 140°00'3 0.1
2017-Aug-15 23:22N 35°35' E 140°03'2 5.2
2017-Aug-15 22:57N 35°33' E 140°01'5 9.9
2017-Aug-15 22:27N 35°31' E 139°56'4 8.8
2017-Aug-15 22:01N 35°30' E 139°51'4 8.9
2017-Aug-15 21:30N 35°29' E 139°46'1 2.5
2017-Aug-15 21:00N 35°29' E 139°44'0 0.0
2017-Aug-15 20:30N 35°29' E 139°44'0 0.0
2017-Aug-15 20:01N 35°29' E 139°44'0 0.0
2017-Aug-15 19:30N 35°29' E 139°44'0 0.0
2017-Aug-15 19:01N 35°29' E 139°44'0 0.0
2017-Aug-15 18:30N 35°29' E 139°44'0 0.0
2017-Aug-15 18:00N 35°29' E 139°44'0 0.0
2017-Aug-15 17:30N 35°29' E 139°44'0 0.0
2017-Aug-15 17:00N 35°29' E 139°44'0 0.0
2017-Aug-15 16:30N 35°29' E 139°44'0 0.0
2017-Aug-15 16:00N 35°29' E 139°44'0 0.0
2017-Aug-15 15:30N 35°29' E 139°44'0 0.0
2017-Aug-15 15:00N 35°29' E 139°44'0 0.0
2017-Aug-15 14:30N 35°29' E 139°44'0 0.0
2017-Aug-15 14:00N 35°29' E 139°44'0 0.0
2017-Aug-15 13:30N 35°29' E 139°44'0 0.0
2017-Aug-15 13:00N 35°29' E 139°44'0 0.0
2017-Aug-15 12:30N 35°29' E 139°44'0 0.0
2017-Aug-15 12:00N 35°29' E 139°44'0 0.0
2017-Aug-15 11:30N 35°29' E 139°44'0 0.0
2017-Aug-15 11:00N 35°29' E 139°44'0 0.0
2017-Aug-15 10:30N 35°29' E 139°44'1 2.4
2017-Aug-15 10:00N 35°29' E 139°45'0 0.6
2017-Aug-15 09:30N 35°29' E 139°46'0 0.0
2017-Aug-15 09:00N 35°29' E 139°46'0 0.0
2017-Aug-15 08:30N 35°29' E 139°46'0 0.0
2017-Aug-15 08:00N 35°29' E 139°46'0 0.1
2017-Aug-15 07:30N 35°29' E 139°46'5 9.5
2017-Aug-15 07:00N 35°25' E 139°43'5 9.2
2017-Aug-15 06:30N 35°20' E 139°40'0 0.5
2017-Aug-15 06:00N 35°20' E 139°41'0 0.0
2017-Aug-15 05:30N 35°20' E 139°41'0 0.1
2017-Aug-15 05:00N 35°20' E 139°40'0 0.1
2017-Aug-15 04:30N 35°20' E 139°41'0 0.3
2017-Aug-15 04:00N 35°20' E 139°41'611.2
2017-Aug-15 03:31N 35°26' E 139°43'611.6
2017-Aug-15 03:00N 35°29' E 139°49'15 3.4
2017-Aug-14 22:28N 35°35' E 140°07'5 7.6
2017-Aug-14 21:47N 35°35' E 140°00'1 2.5
2017-Aug-14 21:29N 35°36' E 139°60'0 0.0
2017-Aug-14 20:29N 35°36' E 139°60'0 0.0
2017-Aug-14 19:33N 35°36' E 139°60'0 0.0
2017-Aug-14 19:30N 35°36' E 139°60'0 0.0
2017-Aug-14 18:59N 35°36' E 139°60'0 0.0
2017-Aug-14 17:46N 35°36' E 139°60'0 0.0
2017-Aug-14 16:12N 35°36' E 139°60'0 0.0
2017-Aug-14 15:41N 35°36' E 139°60'0 0.0
2017-Aug-14 15:27N 35°36' E 139°60'1 0.0
2017-Aug-13 21:20N 35°35' E 139°59'3 9.6
2017-Aug-13 21:00N 35°34' E 139°56'510.4
2017-Aug-13 20:30N 35°31' E 139°50'5 9.9
2017-Aug-13 20:00N 35°29' E 139°45'1 1.3
2017-Aug-13 19:30N 35°29' E 139°44'0 0.0
2017-Aug-13 19:00N 35°29' E 139°44'0 0.0
2017-Aug-13 18:30N 35°29' E 139°44'0 0.0
2017-Aug-13 18:00N 35°29' E 139°44'0 0.0
2017-Aug-13 17:30N 35°29' E 139°44'0 0.0
2017-Aug-13 17:00N 35°29' E 139°44'0 0.0
2017-Aug-13 16:30N 35°29' E 139°44'0 0.0
2017-Aug-13 16:00N 35°29' E 139°44'0 0.0
2017-Aug-13 15:30N 35°29' E 139°44'0 0.0
2017-Aug-13 15:01N 35°29' E 139°44'0 0.0
2017-Aug-13 14:30N 35°29' E 139°44'0 0.0
2017-Aug-13 14:00N 35°29' E 139°44'0 0.0
2017-Aug-13 13:30N 35°29' E 139°44'0 0.0
2017-Aug-13 13:00N 35°29' E 139°44'0 0.0
2017-Aug-13 12:30N 35°29' E 139°44'0 0.0
2017-Aug-13 12:00N 35°29' E 139°44'0 0.0
2017-Aug-13 11:31N 35°29' E 139°44'0 0.0
2017-Aug-13 11:00N 35°29' E 139°44'0 0.0
2017-Aug-13 10:30N 35°29' E 139°44'0 0.0
2017-Aug-13 10:01N 35°29' E 139°44'0 0.0
2017-Aug-13 09:30N 35°29' E 139°44'0 0.0
2017-Aug-13 09:00N 35°29' E 139°44'0 0.0
2017-Aug-13 08:30N 35°29' E 139°44'0 0.0
2017-Aug-13 08:00N 35°29' E 139°44'0 0.0
2017-Aug-13 07:30N 35°29' E 139°44'0 0.0
2017-Aug-13 07:00N 35°29' E 139°44'4 8.0
2017-Aug-13 06:30N 35°25' E 139°46'611.4
2017-Aug-13 06:00N 35°20' E 139°44'510.7
2017-Aug-13 05:30N 35°15' E 139°47'510.4
2017-Aug-13 05:00N 35°10' E 139°46'510.6
2017-Aug-13 04:30N 35°05' E 139°45'510.9
2017-Aug-13 04:00N 34°59' E 139°44'  
2017-Aug-10 12:35N 34°58' E 139°44'110.7
2017-Aug-10 12:30N 34°59' E 139°43'510.2
2017-Aug-10 12:00N 35°04' E 139°44'510.4
2017-Aug-10 11:30N 35°09' E 139°45'511.0
2017-Aug-10 11:00N 35°14' E 139°46'611.4
2017-Aug-10 10:30N 35°19' E 139°43'611.1
2017-Aug-10 10:01N 35°25' E 139°43'3 6.1
2017-Aug-10 09:30N 35°27' E 139°41'0 0.0
2017-Aug-10 09:00N 35°27' E 139°41'0 0.0
2017-Aug-10 08:30N 35°27' E 139°41'0 0.0
2017-Aug-10 08:01N 35°27' E 139°41'0 0.0
2017-Aug-10 07:30N 35°27' E 139°41'0 0.0
2017-Aug-10 07:00N 35°27' E 139°41'0 0.0
2017-Aug-10 06:30N 35°27' E 139°41'0 0.0
2017-Aug-10 06:00N 35°27' E 139°41'0 0.0
2017-Aug-10 05:30N 35°27' E 139°41'0 0.0
2017-Aug-10 05:00N 35°27' E 139°41'0 0.0
2017-Aug-10 04:30N 35°27' E 139°41'0 0.0
2017-Aug-10 04:01N 35°27' E 139°41'0 0.0
2017-Aug-10 03:30N 35°27' E 139°41'0 0.0
2017-Aug-10 03:00N 35°27' E 139°41'0 0.0
2017-Aug-10 02:30N 35°27' E 139°41'0 0.0
2017-Aug-10 02:00N 35°27' E 139°41'0 0.0
2017-Aug-10 01:30N 35°27' E 139°41'0 0.0
2017-Aug-10 01:01N 35°27' E 139°41'0 0.0
2017-Aug-10 00:30N 35°27' E 139°41'0 0.0
2017-Aug-10 00:00N 35°27' E 139°41'0 0.0
2017-Aug-09 23:30N 35°27' E 139°41'0 0.0
2017-Aug-09 23:00N 35°27' E 139°41'0 0.0
2017-Aug-09 22:30N 35°27' E 139°41'1 2.6
2017-Aug-09 22:00N 35°27' E 139°42'0 0.9
2017-Aug-09 21:30N 35°27' E 139°42'0 0.0
2017-Aug-09 21:00N 35°27' E 139°42'0 0.0
2017-Aug-09 20:30N 35°27' E 139°42'0 0.0
2017-Aug-09 20:00N 35°27' E 139°42'0 0.0
2017-Aug-09 19:30N 35°27' E 139°42'0 0.0
2017-Aug-09 19:00N 35°27' E 139°42'0 0.0
2017-Aug-09 18:30N 35°27' E 139°42'0 0.0
2017-Aug-09 18:00N 35°27' E 139°42'0 0.0
2017-Aug-09 17:30N 35°27' E 139°42'0 0.0
2017-Aug-09 17:00N 35°27' E 139°42'0 0.0
2017-Aug-09 16:31N 35°27' E 139°42'0 0.0
2017-Aug-09 16:00N 35°27' E 139°42'0 0.0
2017-Aug-09 15:30N 35°27' E 139°42'0 0.0
2017-Aug-09 15:00N 35°27' E 139°42'0 0.0
2017-Aug-09 14:31N 35°27' E 139°42'0 0.0
2017-Aug-09 14:00N 35°27' E 139°42'0 0.0
2017-Aug-09 13:30N 35°27' E 139°42'0 0.0
2017-Aug-09 13:00N 35°27' E 139°42'0 0.0
2017-Aug-09 12:30N 35°27' E 139°42'0 0.0
2017-Aug-09 12:01N 35°27' E 139°42'0 0.0
2017-Aug-09 11:31N 35°27' E 139°42'0 0.0
2017-Aug-09 11:01N 35°27' E 139°42'2 4.9
2017-Aug-09 10:30N 35°27' E 139°45'611.3
2017-Aug-09 10:00N 35°31' E 139°50'4 7.1
2017-Aug-09 09:30N 35°35' E 139°50'0 0.1
2017-Aug-09 09:00N 35°35' E 139°51'0 0.1
2017-Aug-09 08:30N 35°35' E 139°51'7 1.0
2017-Aug-09 01:32N 35°33' E 139°59'111.2
2017-Aug-09 01:26N 35°33' E 139°58'510.8
2017-Aug-09 01:00N 35°31' E 139°53'510.0
2017-Aug-09 00:30N 35°29' E 139°47'2 4.8
2017-Aug-09 00:00N 35°29' E 139°44'0 0.0
2017-Aug-08 23:30N 35°29' E 139°44'0 0.0
2017-Aug-08 23:00N 35°29' E 139°44'0 0.0
2017-Aug-08 22:30N 35°29' E 139°44'0 0.0
2017-Aug-08 22:00N 35°29' E 139°44'0 0.0
2017-Aug-08 21:30N 35°29' E 139°44'0 0.0
2017-Aug-08 21:00N 35°29' E 139°44'0 0.0
2017-Aug-08 20:30N 35°29' E 139°44'0 0.0
2017-Aug-08 20:00N 35°29' E 139°44'0 0.0
2017-Aug-08 19:30N 35°29' E 139°44'0 0.0
2017-Aug-08 19:00N 35°29' E 139°44'0 0.0
2017-Aug-08 18:30N 35°29' E 139°44'0 0.0
2017-Aug-08 18:00N 35°29' E 139°44'0 0.0
2017-Aug-08 17:30N 35°29' E 139°44'0 0.0
2017-Aug-08 17:00N 35°29' E 139°44'0 0.0
2017-Aug-08 16:30N 35°29' E 139°44'0 0.0
2017-Aug-08 16:00N 35°29' E 139°44'0 0.0
2017-Aug-08 15:30N 35°29' E 139°44'0 0.0
2017-Aug-08 15:00N 35°29' E 139°44'0 0.0
2017-Aug-08 14:30N 35°29' E 139°44'0 0.0
2017-Aug-08 14:00N 35°29' E 139°44'0 0.0
2017-Aug-08 13:31N 35°29' E 139°44'0 0.0
2017-Aug-08 13:00N 35°29' E 139°44'0 0.0
2017-Aug-08 12:30N 35°29' E 139°44'0 0.0
2017-Aug-08 12:00N 35°29' E 139°44'0 0.0
2017-Aug-08 11:30N 35°29' E 139°44'0 0.0
2017-Aug-08 11:00N 35°29' E 139°44'0 0.0
2017-Aug-08 10:30N 35°29' E 139°44'0 0.0
2017-Aug-08 10:01N 35°29' E 139°44'0 0.0
2017-Aug-08 09:30N 35°29' E 139°44'0 0.0
2017-Aug-08 09:00N 35°29' E 139°44'0 0.0
2017-Aug-08 08:30N 35°29' E 139°44'0 0.0
2017-Aug-08 08:00N 35°29' E 139°44'0 0.0
2017-Aug-08 07:30N 35°29' E 139°44'0 0.0
2017-Aug-08 07:00N 35°29' E 139°44'0 0.0
2017-Aug-08 06:31N 35°29' E 139°44'0 0.0
2017-Aug-08 06:00N 35°29' E 139°44'0 0.0
2017-Aug-08 05:30N 35°29' E 139°44'0 0.0
2017-Aug-08 05:00N 35°29' E 139°44'0 0.0
2017-Aug-08 04:30N 35°29' E 139°44'0 0.0
2017-Aug-08 04:00N 35°29' E 139°44'1 2.4
2017-Aug-08 03:30N 35°29' E 139°46'0 0.2
2017-Aug-08 03:00N 35°29' E 139°46'  
Track history (hours):
 
Tides and Currents Weather Stations Pressure Air Temp Water Temp Dewpoint Dewpoint Depression Visibility Wind Speed Wind Dir Waves Ship Positions

Dai2kousei

Last reported at 2017-Aug-18 02:43 UTC. Time now 2017-Aug-21 12:02 UTC.
Position N 34°54' E 139°24'.

Length 77 m; draft 3.7 m.

MMSI: 431000467.

Date/timePositionNaut miles runAvg speedWind from/ knotsBaromVisibWave heightAir tempDewpointWater temp
2017-Aug-18 02:43N 34°54' E 139°24'210.7
2017-Aug-18 02:30N 34°56' E 139°26'611.8
2017-Aug-18 02:00N 34°60' E 139°32'612.1
2017-Aug-18 01:30N 35°03' E 139°37'612.4
2017-Aug-18 01:00N 35°08' E 139°43'612.1
2017-Aug-18 00:30N 35°13' E 139°46'611.5
2017-Aug-18 00:00N 35°18' E 139°44'511.0
2017-Aug-17 23:30N 35°24' E 139°43'510.4
2017-Aug-17 23:00N 35°29' E 139°45'1 1.3
2017-Aug-17 22:30N 35°29' E 139°44'0 0.0
2017-Aug-17 22:00N 35°29' E 139°44'0 0.0
2017-Aug-17 21:31N 35°29' E 139°44'0 0.0
2017-Aug-17 21:00N 35°29' E 139°44'0 0.0
2017-Aug-17 20:31N 35°29' E 139°44'0 0.0
2017-Aug-17 20:00N 35°29' E 139°44'0 0.0
2017-Aug-17 19:30N 35°29' E 139°44'0 0.0
2017-Aug-17 19:00N 35°29' E 139°44'0 0.0
2017-Aug-17 18:30N 35°29' E 139°44'0 0.0
2017-Aug-17 18:00N 35°29' E 139°44'0 0.0
2017-Aug-17 17:30N 35°29' E 139°44'0 0.0
2017-Aug-17 17:00N 35°29' E 139°44'0 0.0
2017-Aug-17 16:31N 35°29' E 139°44'0 0.0
2017-Aug-17 16:01N 35°29' E 139°44'0 0.0
2017-Aug-17 15:31N 35°29' E 139°44'0 0.0
2017-Aug-17 15:00N 35°29' E 139°44'0 0.3
2017-Aug-17 14:30N 35°29' E 139°44'2 3.2
2017-Aug-17 14:00N 35°29' E 139°46'0 0.0
2017-Aug-17 13:30N 35°29' E 139°46'0 0.1
2017-Aug-17 13:00N 35°29' E 139°46'0 0.0
2017-Aug-17 12:30N 35°29' E 139°46'0 0.0
2017-Aug-17 12:00N 35°29' E 139°46'0 0.0
2017-Aug-17 11:30N 35°29' E 139°46'0 0.0
2017-Aug-17 11:00N 35°29' E 139°46'0 0.0
2017-Aug-17 10:30N 35°29' E 139°46'0 0.0
2017-Aug-17 10:00N 35°29' E 139°46'0 0.0
2017-Aug-17 09:30N 35°29' E 139°46'0 0.0
2017-Aug-17 09:00N 35°29' E 139°46'0 0.1
2017-Aug-17 08:30N 35°29' E 139°46'2 3.7
2017-Aug-17 08:00N 35°29' E 139°48'9 2.0
2017-Aug-17 03:14N 35°28' E 139°60'1 3.2
2017-Aug-17 02:57N 35°29' E 139°59'4 7.9
2017-Aug-17 02:28N 35°33' E 140°00'3 0.1
2017-Aug-15 23:22N 35°35' E 140°03'2 5.2
2017-Aug-15 22:57N 35°33' E 140°01'5 9.9
2017-Aug-15 22:27N 35°31' E 139°56'4 8.8
2017-Aug-15 22:01N 35°30' E 139°51'4 8.9
2017-Aug-15 21:30N 35°29' E 139°46'1 2.5
2017-Aug-15 21:00N 35°29' E 139°44'0 0.0
2017-Aug-15 20:30N 35°29' E 139°44'0 0.0
2017-Aug-15 20:01N 35°29' E 139°44'0 0.0
2017-Aug-15 19:30N 35°29' E 139°44'0 0.0
2017-Aug-15 19:01N 35°29' E 139°44'0 0.0
2017-Aug-15 18:30N 35°29' E 139°44'0 0.0
2017-Aug-15 18:00N 35°29' E 139°44'0 0.0
2017-Aug-15 17:30N 35°29' E 139°44'0 0.0
2017-Aug-15 17:00N 35°29' E 139°44'0 0.0
2017-Aug-15 16:30N 35°29' E 139°44'0 0.0
2017-Aug-15 16:00N 35°29' E 139°44'0 0.0
2017-Aug-15 15:30N 35°29' E 139°44'0 0.0
2017-Aug-15 15:00N 35°29' E 139°44'0 0.0
2017-Aug-15 14:30N 35°29' E 139°44'0 0.0
2017-Aug-15 14:00N 35°29' E 139°44'0 0.0
2017-Aug-15 13:30N 35°29' E 139°44'0 0.0
2017-Aug-15 13:00N 35°29' E 139°44'0 0.0
2017-Aug-15 12:30N 35°29' E 139°44'0 0.0
2017-Aug-15 12:00N 35°29' E 139°44'0 0.0
2017-Aug-15 11:30N 35°29' E 139°44'0 0.0
2017-Aug-15 11:00N 35°29' E 139°44'0 0.0
2017-Aug-15 10:30N 35°29' E 139°44'1 2.4
2017-Aug-15 10:00N 35°29' E 139°45'0 0.6
2017-Aug-15 09:30N 35°29' E 139°46'0 0.0
2017-Aug-15 09:00N 35°29' E 139°46'0 0.0
2017-Aug-15 08:30N 35°29' E 139°46'0 0.0
2017-Aug-15 08:00N 35°29' E 139°46'0 0.1
2017-Aug-15 07:30N 35°29' E 139°46'5 9.5
2017-Aug-15 07:00N 35°25' E 139°43'5 9.2
2017-Aug-15 06:30N 35°20' E 139°40'0 0.5
2017-Aug-15 06:00N 35°20' E 139°41'0 0.0
2017-Aug-15 05:30N 35°20' E 139°41'0 0.1
2017-Aug-15 05:00N 35°20' E 139°40'0 0.1
2017-Aug-15 04:30N 35°20' E 139°41'0 0.3
2017-Aug-15 04:00N 35°20' E 139°41'611.2
2017-Aug-15 03:31N 35°26' E 139°43'611.6
2017-Aug-15 03:00N 35°29' E 139°49'15 3.4
2017-Aug-14 22:28N 35°35' E 140°07'5 7.6
2017-Aug-14 21:47N 35°35' E 140°00'1 2.5
2017-Aug-14 21:29N 35°36' E 139°60'0 0.0
2017-Aug-14 20:29N 35°36' E 139°60'0 0.0
2017-Aug-14 19:33N 35°36' E 139°60'0 0.0
2017-Aug-14 19:30N 35°36' E 139°60'0 0.0
2017-Aug-14 18:59N 35°36' E 139°60'0 0.0
2017-Aug-14 17:46N 35°36' E 139°60'0 0.0
2017-Aug-14 16:12N 35°36' E 139°60'0 0.0
2017-Aug-14 15:41N 35°36' E 139°60'0 0.0
2017-Aug-14 15:27N 35°36' E 139°60'1 0.0
2017-Aug-13 21:20N 35°35' E 139°59'3 9.6
2017-Aug-13 21:00N 35°34' E 139°56'510.4
2017-Aug-13 20:30N 35°31' E 139°50'5 9.9
2017-Aug-13 20:00N 35°29' E 139°45'1 1.3
2017-Aug-13 19:30N 35°29' E 139°44'0 0.0
2017-Aug-13 19:00N 35°29' E 139°44'0 0.0
2017-Aug-13 18:30N 35°29' E 139°44'0 0.0
2017-Aug-13 18:00N 35°29' E 139°44'0 0.0
2017-Aug-13 17:30N 35°29' E 139°44'0 0.0
2017-Aug-13 17:00N 35°29' E 139°44'0 0.0
2017-Aug-13 16:30N 35°29' E 139°44'0 0.0
2017-Aug-13 16:00N 35°29' E 139°44'0 0.0
2017-Aug-13 15:30N 35°29' E 139°44'0 0.0
2017-Aug-13 15:01N 35°29' E 139°44'0 0.0
2017-Aug-13 14:30N 35°29' E 139°44'0 0.0
2017-Aug-13 14:00N 35°29' E 139°44'0 0.0
2017-Aug-13 13:30N 35°29' E 139°44'0 0.0
2017-Aug-13 13:00N 35°29' E 139°44'0 0.0
2017-Aug-13 12:30N 35°29' E 139°44'0 0.0
2017-Aug-13 12:00N 35°29' E 139°44'0 0.0
2017-Aug-13 11:31N 35°29' E 139°44'0 0.0
2017-Aug-13 11:00N 35°29' E 139°44'0 0.0
2017-Aug-13 10:30N 35°29' E 139°44'0 0.0
2017-Aug-13 10:01N 35°29' E 139°44'0 0.0
2017-Aug-13 09:30N 35°29' E 139°44'0 0.0
2017-Aug-13 09:00N 35°29' E 139°44'0 0.0
2017-Aug-13 08:30N 35°29' E 139°44'0 0.0
2017-Aug-13 08:00N 35°29' E 139°44'0 0.0
2017-Aug-13 07:30N 35°29' E 139°44'0 0.0
2017-Aug-13 07:00N 35°29' E 139°44'4 8.0
2017-Aug-13 06:30N 35°25' E 139°46'611.4
2017-Aug-13 06:00N 35°20' E 139°44'510.7
2017-Aug-13 05:30N 35°15' E 139°47'510.4
2017-Aug-13 05:00N 35°10' E 139°46'510.6
2017-Aug-13 04:30N 35°05' E 139°45'510.9
2017-Aug-13 04:00N 34°59' E 139°44'  
2017-Aug-10 12:35N 34°58' E 139°44'110.7
2017-Aug-10 12:30N 34°59' E 139°43'510.2
2017-Aug-10 12:00N 35°04' E 139°44'510.4
2017-Aug-10 11:30N 35°09' E 139°45'511.0
2017-Aug-10 11:00N 35°14' E 139°46'611.4
2017-Aug-10 10:30N 35°19' E 139°43'611.1
2017-Aug-10 10:01N 35°25' E 139°43'3 6.1
2017-Aug-10 09:30N 35°27' E 139°41'0 0.0
2017-Aug-10 09:00N 35°27' E 139°41'0 0.0
2017-Aug-10 08:30N 35°27' E 139°41'0 0.0
2017-Aug-10 08:01N 35°27' E 139°41'0 0.0
2017-Aug-10 07:30N 35°27' E 139°41'0 0.0
2017-Aug-10 07:00N 35°27' E 139°41'0 0.0
2017-Aug-10 06:30N 35°27' E 139°41'0 0.0
2017-Aug-10 06:00N 35°27' E 139°41'0 0.0
2017-Aug-10 05:30N 35°27' E 139°41'0 0.0
2017-Aug-10 05:00N 35°27' E 139°41'0 0.0
2017-Aug-10 04:30N 35°27' E 139°41'0 0.0
2017-Aug-10 04:01N 35°27' E 139°41'0 0.0
2017-Aug-10 03:30N 35°27' E 139°41'0 0.0
2017-Aug-10 03:00N 35°27' E 139°41'0 0.0
2017-Aug-10 02:30N 35°27' E 139°41'0 0.0
2017-Aug-10 02:00N 35°27' E 139°41'0 0.0
2017-Aug-10 01:30N 35°27' E 139°41'0 0.0
2017-Aug-10 01:01N 35°27' E 139°41'0 0.0
2017-Aug-10 00:30N 35°27' E 139°41'0 0.0
2017-Aug-10 00:00N 35°27' E 139°41'0 0.0
2017-Aug-09 23:30N 35°27' E 139°41'0 0.0
2017-Aug-09 23:00N 35°27' E 139°41'0 0.0
2017-Aug-09 22:30N 35°27' E 139°41'1 2.6
2017-Aug-09 22:00N 35°27' E 139°42'0 0.9
2017-Aug-09 21:30N 35°27' E 139°42'0 0.0
2017-Aug-09 21:00N 35°27' E 139°42'0 0.0
2017-Aug-09 20:30N 35°27' E 139°42'0 0.0
2017-Aug-09 20:00N 35°27' E 139°42'0 0.0
2017-Aug-09 19:30N 35°27' E 139°42'0 0.0
2017-Aug-09 19:00N 35°27' E 139°42'0 0.0
2017-Aug-09 18:30N 35°27' E 139°42'0 0.0
2017-Aug-09 18:00N 35°27' E 139°42'0 0.0
2017-Aug-09 17:30N 35°27' E 139°42'0 0.0
2017-Aug-09 17:00N 35°27' E 139°42'0 0.0
2017-Aug-09 16:31N 35°27' E 139°42'0 0.0
2017-Aug-09 16:00N 35°27' E 139°42'0 0.0
2017-Aug-09 15:30N 35°27' E 139°42'0 0.0
2017-Aug-09 15:00N 35°27' E 139°42'0 0.0
2017-Aug-09 14:31N 35°27' E 139°42'0 0.0
2017-Aug-09 14:00N 35°27' E 139°42'0 0.0
2017-Aug-09 13:30N 35°27' E 139°42'0 0.0
2017-Aug-09 13:00N 35°27' E 139°42'0 0.0
2017-Aug-09 12:30N 35°27' E 139°42'0 0.0
2017-Aug-09 12:01N 35°27' E 139°42'0 0.0
2017-Aug-09 11:31N 35°27' E 139°42'0 0.0
2017-Aug-09 11:01N 35°27' E 139°42'2 4.9
2017-Aug-09 10:30N 35°27' E 139°45'611.3
2017-Aug-09 10:00N 35°31' E 139°50'4 7.1
2017-Aug-09 09:30N 35°35' E 139°50'0 0.1
2017-Aug-09 09:00N 35°35' E 139°51'0 0.1
2017-Aug-09 08:30N 35°35' E 139°51'7 1.0
2017-Aug-09 01:32N 35°33' E 139°59'111.2
2017-Aug-09 01:26N 35°33' E 139°58'510.8
2017-Aug-09 01:00N 35°31' E 139°53'510.0
2017-Aug-09 00:30N 35°29' E 139°47'2 4.8
2017-Aug-09 00:00N 35°29' E 139°44'0 0.0
2017-Aug-08 23:30N 35°29' E 139°44'0 0.0
2017-Aug-08 23:00N 35°29' E 139°44'0 0.0
2017-Aug-08 22:30N 35°29' E 139°44'0 0.0
2017-Aug-08 22:00N 35°29' E 139°44'0 0.0
2017-Aug-08 21:30N 35°29' E 139°44'0 0.0
2017-Aug-08 21:00N 35°29' E 139°44'0 0.0
2017-Aug-08 20:30N 35°29' E 139°44'0 0.0
2017-Aug-08 20:00N 35°29' E 139°44'0 0.0
2017-Aug-08 19:30N 35°29' E 139°44'0 0.0
2017-Aug-08 19:00N 35°29' E 139°44'0 0.0
2017-Aug-08 18:30N 35°29' E 139°44'0 0.0
2017-Aug-08 18:00N 35°29' E 139°44'0 0.0
2017-Aug-08 17:30N 35°29' E 139°44'0 0.0
2017-Aug-08 17:00N 35°29' E 139°44'0 0.0
2017-Aug-08 16:30N 35°29' E 139°44'0 0.0
2017-Aug-08 16:00N 35°29' E 139°44'0 0.0
2017-Aug-08 15:30N 35°29' E 139°44'0 0.0
2017-Aug-08 15:00N 35°29' E 139°44'0 0.0
2017-Aug-08 14:30N 35°29' E 139°44'0 0.0
2017-Aug-08 14:00N 35°29' E 139°44'0 0.0
2017-Aug-08 13:31N 35°29' E 139°44'0 0.0
2017-Aug-08 13:00N 35°29' E 139°44'0 0.0
2017-Aug-08 12:30N 35°29' E 139°44'0 0.0
2017-Aug-08 12:00N 35°29' E 139°44'0 0.0
2017-Aug-08 11:30N 35°29' E 139°44'0 0.0
2017-Aug-08 11:00N 35°29' E 139°44'0 0.0
2017-Aug-08 10:30N 35°29' E 139°44'0 0.0
2017-Aug-08 10:01N 35°29' E 139°44'0 0.0
2017-Aug-08 09:30N 35°29' E 139°44'0 0.0
2017-Aug-08 09:00N 35°29' E 139°44'0 0.0
2017-Aug-08 08:30N 35°29' E 139°44'0 0.0
2017-Aug-08 08:00N 35°29' E 139°44'0 0.0
2017-Aug-08 07:30N 35°29' E 139°44'0 0.0
2017-Aug-08 07:00N 35°29' E 139°44'0 0.0
2017-Aug-08 06:31N 35°29' E 139°44'0 0.0
2017-Aug-08 06:00N 35°29' E 139°44'0 0.0
2017-Aug-08 05:30N 35°29' E 139°44'0 0.0
2017-Aug-08 05:00N 35°29' E 139°44'0 0.0
2017-Aug-08 04:30N 35°29' E 139°44'0 0.0
2017-Aug-08 04:00N 35°29' E 139°44'1 2.4
2017-Aug-08 03:30N 35°29' E 139°46'0 0.2
2017-Aug-08 03:00N 35°29' E 139°46'  

Dump ship's entire track history